sensor_id;sensor_type;location;lat;lon;timestamp;pressure;altitude;pressure_sealevel;temperature;humidity
48872;BME280;36154;51.674;7.824;2023-05-22T00:01:35;100615.94;;;23.17;53.24
48872;BME280;36154;51.674;7.824;2023-05-22T00:04:06;100609.75;;;23.20;53.25
48872;BME280;36154;51.674;7.824;2023-05-22T00:06:32;100608.94;;;23.19;53.50
48872;BME280;36154;51.674;7.824;2023-05-22T00:08:58;100608.09;;;23.19;53.47
48872;BME280;36154;51.674;7.824;2023-05-22T00:11:23;100615.84;;;23.20;53.46
48872;BME280;36154;51.674;7.824;2023-05-22T00:13:49;100612.38;;;23.20;53.52
48872;BME280;36154;51.674;7.824;2023-05-22T00:16:15;100608.03;;;23.20;53.63
48872;BME280;36154;51.674;7.824;2023-05-22T00:18:40;100615.84;;;23.20;53.24
48872;BME280;36154;51.674;7.824;2023-05-22T00:21:09;100604.66;;;23.18;53.51
48872;BME280;36154;51.674;7.824;2023-05-22T00:23:34;100603.72;;;23.19;53.25
48872;BME280;36154;51.674;7.824;2023-05-22T00:26:00;100605.44;;;23.20;53.33
48872;BME280;36154;51.674;7.824;2023-05-22T00:28:25;100600.31;;;23.19;53.45
48872;BME280;36154;51.674;7.824;2023-05-22T00:30:51;100594.16;;;23.20;53.39
48872;BME280;36154;51.674;7.824;2023-05-22T00:33:16;100593.34;;;23.19;53.45
48872;BME280;36154;51.674;7.824;2023-05-22T00:35:41;100580.34;;;23.19;53.38
48872;BME280;36154;51.674;7.824;2023-05-22T00:38:07;100581.19;;;23.20;53.27
48872;BME280;36154;51.674;7.824;2023-05-22T00:40:32;100578.66;;;23.18;53.23
48872;BME280;36154;51.674;7.824;2023-05-22T00:42:58;100582.94;;;23.19;53.57
48872;BME280;36154;51.674;7.824;2023-05-22T00:45:25;100576.84;;;23.20;53.68
48872;BME280;36154;51.674;7.824;2023-05-22T00:47:50;100572.53;;;23.19;53.56
48872;BME280;36154;51.674;7.824;2023-05-22T00:50:17;100567.34;;;23.19;53.91
48872;BME280;36154;51.674;7.824;2023-05-22T00:52:44;100571.72;;;23.19;53.53
48872;BME280;36154;51.674;7.824;2023-05-22T00:55:11;100570.78;;;23.20;53.25
48872;BME280;36154;51.674;7.824;2023-05-22T00:57:37;100573.47;;;23.18;53.45
48872;BME280;36154;51.674;7.824;2023-05-22T01:00:07;100579.44;;;23.20;53.25
48872;BME280;36154;51.674;7.824;2023-05-22T01:02:35;100579.44;;;23.20;53.63
48872;BME280;36154;51.674;7.824;2023-05-22T01:05:02;100573.53;;;23.17;53.42
48872;BME280;36154;51.674;7.824;2023-05-22T01:07:28;100588.97;;;23.20;53.37
48872;BME280;36154;51.674;7.824;2023-05-22T01:09:54;100592.44;;;23.20;53.21
48872;BME280;36154;51.674;7.824;2023-05-22T01:12:32;100583.78;;;23.20;53.35
48872;BME280;36154;51.674;7.824;2023-05-22T01:18:25;100585.59;;;23.18;53.38
48872;BME280;36154;51.674;7.824;2023-05-22T01:20:53;100578.72;;;23.17;53.15
48872;BME280;36154;51.674;7.824;2023-05-22T01:26:53;100581.38;;;23.15;53.30
48872;BME280;36154;51.674;7.824;2023-05-22T01:32:12;100584.88;;;23.14;53.53
48872;BME280;36154;51.674;7.824;2023-05-22T01:34:39;100581.38;;;23.15;53.25
48872;BME280;36154;51.674;7.824;2023-05-22T01:37:08;100585.72;;;23.15;53.26
48872;BME280;36154;51.674;7.824;2023-05-22T01:39:34;100579.69;;;23.14;53.59
48872;BME280;36154;51.674;7.824;2023-05-22T01:42:00;100571.88;;;23.14;53.23
48872;BME280;36154;51.674;7.824;2023-05-22T01:44:26;100581.38;;;23.15;53.43
48872;BME280;36154;51.674;7.824;2023-05-22T01:46:51;100572.78;;;23.13;53.30
48872;BME280;36154;51.674;7.824;2023-05-22T01:49:17;100576.19;;;23.15;53.19
48872;BME280;36154;51.674;7.824;2023-05-22T01:51:52;100571.00;;;23.15;53.55
48872;BME280;36154;51.674;7.824;2023-05-22T01:54:37;100568.38;;;23.15;53.36
48872;BME280;36154;51.674;7.824;2023-05-22T01:57:31;100559.72;;;23.15;53.43
48872;BME280;36154;51.674;7.824;2023-05-22T02:00:09;100557.19;;;23.13;53.20
48872;BME280;36154;51.674;7.824;2023-05-22T02:02:41;100550.31;;;23.12;53.30
48872;BME280;36154;51.674;7.824;2023-05-22T02:05:09;100552.84;;;23.14;53.30
48872;BME280;36154;51.674;7.824;2023-05-22T02:07:37;100557.19;;;23.13;53.15
48872;BME280;36154;51.674;7.824;2023-05-22T02:10:04;100557.19;;;23.13;53.46
48872;BME280;36154;51.674;7.824;2023-05-22T02:12:31;100558.06;;;23.14;53.29
48872;BME280;36154;51.674;7.824;2023-05-22T02:14:58;100558.00;;;23.15;53.49
48872;BME280;36154;51.674;7.824;2023-05-22T02:17:23;100549.38;;;23.13;53.34
48872;BME280;36154;51.674;7.824;2023-05-22T02:19:50;100545.91;;;23.14;53.31
48872;BME280;36154;51.674;7.824;2023-05-22T02:22:17;100548.50;;;23.14;53.49
48872;BME280;36154;51.674;7.824;2023-05-22T02:24:46;100548.50;;;23.14;53.34
48872;BME280;36154;51.674;7.824;2023-05-22T02:27:11;100545.91;;;23.14;53.45
48872;BME280;36154;51.674;7.824;2023-05-22T02:29:37;100545.13;;;23.12;53.43
48872;BME280;36154;51.674;7.824;2023-05-22T02:32:02;100545.06;;;23.14;53.20
48872;BME280;36154;51.674;7.824;2023-05-22T02:34:28;100552.00;;;23.13;53.10
48872;BME280;36154;51.674;7.824;2023-05-22T02:36:56;100557.19;;;23.13;53.09
48872;BME280;36154;51.674;7.824;2023-05-22T02:39:21;100554.69;;;23.12;53.44
48872;BME280;36154;51.674;7.824;2023-05-22T02:41:47;100560.72;;;23.12;53.50
48872;BME280;36154;51.674;7.824;2023-05-22T02:44:12;100555.53;;;23.12;53.30
48872;BME280;36154;51.674;7.824;2023-05-22T02:46:40;100555.53;;;23.12;53.42
48872;BME280;36154;51.674;7.824;2023-05-22T02:49:05;100547.72;;;23.12;53.10
48872;BME280;36154;51.674;7.824;2023-05-22T02:51:30;100550.31;;;23.12;53.46
48872;BME280;36154;51.674;7.824;2023-05-22T02:53:56;100539.09;;;23.12;53.39
48872;BME280;36154;51.674;7.824;2023-05-22T02:56:21;100549.47;;;23.12;53.44
48872;BME280;36154;51.674;7.824;2023-05-22T02:58:48;100544.28;;;23.12;53.47
48872;BME280;36154;51.674;7.824;2023-05-22T03:01:13;100545.13;;;23.12;53.22
48872;BME280;36154;51.674;7.824;2023-05-22T03:03:39;100528.69;;;23.12;53.48
48872;BME280;36154;51.674;7.824;2023-05-22T03:06:05;100531.34;;;23.10;53.82
48872;BME280;36154;51.674;7.824;2023-05-22T03:08:32;100527.94;;;23.08;53.34
48872;BME280;36154;51.674;7.824;2023-05-22T03:10:59;100522.75;;;23.08;53.31
48872;BME280;36154;51.674;7.824;2023-05-22T03:13:24;100534.00;;;23.08;53.24
48872;BME280;36154;51.674;7.824;2023-05-22T03:15:50;100526.22;;;23.08;53.18
48872;BME280;36154;51.674;7.824;2023-05-22T03:18:15;100534.00;;;23.08;53.38
48872;BME280;36154;51.674;7.824;2023-05-22T03:20:41;100537.50;;;23.07;53.41
48872;BME280;36154;51.674;7.824;2023-05-22T03:23:06;100534.06;;;23.07;53.47
48872;BME280;36154;51.674;7.824;2023-05-22T03:25:31;100537.50;;;23.07;53.20
48872;BME280;36154;51.674;7.824;2023-05-22T03:27:56;100532.31;;;23.07;53.20
48872;BME280;36154;51.674;7.824;2023-05-22T03:30:22;100537.50;;;23.07;53.41
48872;BME280;36154;51.674;7.824;2023-05-22T03:32:47;100534.06;;;23.07;53.36
48872;BME280;36154;51.674;7.824;2023-05-22T03:35:12;100541.88;;;23.07;53.17
48872;BME280;36154;51.674;7.824;2023-05-22T03:37:43;100531.59;;;23.04;53.23
48872;BME280;36154;51.674;7.824;2023-05-22T03:40:08;100533.19;;;23.06;53.11
48872;BME280;36154;51.674;7.824;2023-05-22T03:42:34;100534.97;;;23.06;53.09
48872;BME280;36154;51.674;7.824;2023-05-22T03:45:00;100540.16;;;23.06;53.38
48872;BME280;36154;51.674;7.824;2023-05-22T03:47:25;100538.50;;;23.05;53.19
48872;BME280;36154;51.674;7.824;2023-05-22T03:49:50;100528.94;;;23.05;53.36
48872;BME280;36154;51.674;7.824;2023-05-22T03:52:15;100533.34;;;23.03;53.37
48872;BME280;36154;51.674;7.824;2023-05-22T03:54:41;100536.78;;;23.04;53.36
48872;BME280;36154;51.674;7.824;2023-05-22T03:57:06;100536.78;;;23.04;53.15
48872;BME280;36154;51.674;7.824;2023-05-22T03:59:31;100536.78;;;23.04;53.22
48872;BME280;36154;51.674;7.824;2023-05-22T04:01:56;100528.22;;;23.02;52.89
48872;BME280;36154;51.674;7.824;2023-05-22T04:04:22;100529.13;;;23.01;53.07
48872;BME280;36154;51.674;7.824;2023-05-22T04:06:51;100534.31;;;23.01;53.12
48872;BME280;36154;51.674;7.824;2023-05-22T04:09:16;100531.72;;;23.01;52.56
48872;BME280;36154;51.674;7.824;2023-05-22T04:11:42;100529.19;;;22.99;52.83
48872;BME280;36154;51.674;7.824;2023-05-22T04:14:08;100535.25;;;23.00;52.94
48872;BME280;36154;51.674;7.824;2023-05-22T04:16:33;100538.72;;;22.99;52.73
48872;BME280;36154;51.674;7.824;2023-05-22T04:18:59;100534.38;;;22.99;52.74
48872;BME280;36154;51.674;7.824;2023-05-22T04:21:30;100533.53;;;22.99;52.61
48872;BME280;36154;51.674;7.824;2023-05-22T04:23:58;100531.00;;;22.97;52.77
48872;BME280;36154;51.674;7.824;2023-05-22T04:26:23;100538.72;;;22.99;52.81
48872;BME280;36154;51.674;7.824;2023-05-22T04:28:50;100535.25;;;23.00;52.73
48872;BME280;36154;51.674;7.824;2023-05-22T04:31:15;100539.56;;;22.99;52.48
48872;BME280;36154;51.674;7.824;2023-05-22T04:33:41;100539.56;;;22.99;52.51
48872;BME280;36154;51.674;7.824;2023-05-22T04:36:07;100535.25;;;23.00;52.52
48872;BME280;36154;51.674;7.824;2023-05-22T04:38:34;100535.34;;;22.97;52.56
48872;BME280;36154;51.674;7.824;2023-05-22T04:41:01;100533.53;;;22.99;52.45
48872;BME280;36154;51.674;7.824;2023-05-22T04:43:26;100532.69;;;22.98;52.57
48872;BME280;36154;51.674;7.824;2023-05-22T04:45:51;100538.72;;;22.99;52.29
48872;BME280;36154;51.674;7.824;2023-05-22T04:48:18;100532.66;;;23.00;52.52
48872;BME280;36154;51.674;7.824;2023-05-22T04:50:43;100528.34;;;22.99;52.31
48872;BME280;36154;51.674;7.824;2023-05-22T04:53:10;100530.94;;;22.99;52.41
48872;BME280;36154;51.674;7.824;2023-05-22T04:55:36;100531.78;;;22.99;52.58
48872;BME280;36154;51.674;7.824;2023-05-22T04:58:02;100528.34;;;22.99;52.43
48872;BME280;36154;51.674;7.824;2023-05-22T05:00:27;100533.53;;;22.99;52.38
48872;BME280;36154;51.674;7.824;2023-05-22T05:02:53;100523.16;;;22.99;52.50
48872;BME280;36154;51.674;7.824;2023-05-22T05:05:19;100525.75;;;22.99;52.25
48872;BME280;36154;51.674;7.824;2023-05-22T05:07:46;100517.13;;;22.98;52.48
48872;BME280;36154;51.674;7.824;2023-05-22T05:10:11;100518.78;;;22.99;52.22
48872;BME280;36154;51.674;7.824;2023-05-22T05:12:36;100530.94;;;22.99;52.43
48872;BME280;36154;51.674;7.824;2023-05-22T05:15:02;100523.16;;;22.99;52.21
48872;BME280;36154;51.674;7.824;2023-05-22T05:17:27;100528.34;;;22.99;52.51
48872;BME280;36154;51.674;7.824;2023-05-22T05:19:53;100524.91;;;22.98;52.32
48872;BME280;36154;51.674;7.824;2023-05-22T05:22:18;100525.75;;;22.99;52.51
48872;BME280;36154;51.674;7.824;2023-05-22T05:24:43;100528.34;;;22.99;52.41
48872;BME280;36154;51.674;7.824;2023-05-22T05:27:09;100523.16;;;22.99;52.34
48872;BME280;36154;51.674;7.824;2023-05-22T05:29:34;100530.94;;;22.99;52.32
48872;BME280;36154;51.674;7.824;2023-05-22T05:32:00;100525.75;;;22.99;52.15
48872;BME280;36154;51.674;7.824;2023-05-22T05:34:25;100523.97;;;22.99;52.46
48872;BME280;36154;51.674;7.824;2023-05-22T05:36:50;100528.34;;;22.99;52.15
48872;BME280;36154;51.674;7.824;2023-05-22T05:39:16;100528.34;;;22.99;52.36
48872;BME280;36154;51.674;7.824;2023-05-22T05:41:42;100530.03;;;23.00;52.37
48872;BME280;36154;51.674;7.824;2023-05-22T05:44:07;100530.03;;;23.00;52.49
48872;BME280;36154;51.674;7.824;2023-05-22T05:46:32;100530.03;;;23.00;52.60
48872;BME280;36154;51.674;7.824;2023-05-22T05:48:58;100531.72;;;23.01;52.30
48872;BME280;36154;51.674;7.824;2023-05-22T05:51:23;100530.03;;;23.00;52.71
48872;BME280;36154;51.674;7.824;2023-05-22T05:53:48;100536.91;;;23.01;52.23
48872;BME280;36154;51.674;7.824;2023-05-22T05:56:14;100531.72;;;23.01;52.72
48872;BME280;36154;51.674;7.824;2023-05-22T05:58:39;100534.31;;;23.01;52.53
48872;BME280;36154;51.674;7.824;2023-05-22T06:01:05;100539.44;;;23.02;52.43
48872;BME280;36154;51.674;7.824;2023-05-22T06:03:30;100538.63;;;23.02;52.58
48872;BME280;36154;51.674;7.824;2023-05-22T06:05:56;100538.63;;;23.02;52.24
48872;BME280;36154;51.674;7.824;2023-05-22T06:08:22;100540.28;;;23.03;52.19
48872;BME280;36154;51.674;7.824;2023-05-22T06:10:47;100535.09;;;23.03;52.51
48872;BME280;36154;51.674;7.824;2023-05-22T06:13:13;100533.34;;;23.03;52.45
48872;BME280;36154;51.674;7.824;2023-05-22T06:15:38;100536.78;;;23.04;52.54
48872;BME280;36154;51.674;7.824;2023-05-22T06:18:04;100538.50;;;23.05;52.39
48872;BME280;36154;51.674;7.824;2023-05-22T06:20:29;100538.50;;;23.05;52.56
48872;BME280;36154;51.674;7.824;2023-05-22T06:22:54;100537.56;;;23.06;52.45
48872;BME280;36154;51.674;7.824;2023-05-22T06:25:20;100537.63;;;23.04;52.47
48872;BME280;36154;51.674;7.824;2023-05-22T06:27:45;100540.16;;;23.06;52.27
48872;BME280;36154;51.674;7.824;2023-05-22T06:30:12;100534.97;;;23.06;52.48
48872;BME280;36154;51.674;7.824;2023-05-22T06:32:38;100540.16;;;23.06;52.67
48872;BME280;36154;51.674;7.824;2023-05-22T06:35:03;100532.38;;;23.06;52.58
48872;BME280;36154;51.674;7.824;2023-05-22T06:37:29;100534.97;;;23.06;52.47
48872;BME280;36154;51.674;7.824;2023-05-22T06:39:57;100542.72;;;23.07;52.81
48872;BME280;36154;51.674;7.824;2023-05-22T06:42:22;100543.53;;;23.08;52.56
48872;BME280;36154;51.674;7.824;2023-05-22T06:44:47;100547.91;;;23.07;52.62
48872;BME280;36154;51.674;7.824;2023-05-22T06:47:13;100550.44;;;23.09;52.45
48872;BME280;36154;51.674;7.824;2023-05-22T06:49:38;100549.59;;;23.08;52.40
48872;BME280;36154;51.674;7.824;2023-05-22T06:52:03;100550.44;;;23.09;52.65
48872;BME280;36154;51.674;7.824;2023-05-22T06:54:29;100552.16;;;23.10;52.61
48872;BME280;36154;51.674;7.824;2023-05-22T06:56:55;100557.34;;;23.10;52.72
48872;BME280;36154;51.674;7.824;2023-05-22T06:59:21;100556.47;;;23.10;52.76
48872;BME280;36154;51.674;7.824;2023-05-22T07:01:46;100552.97;;;23.11;52.78
48872;BME280;36154;51.674;7.824;2023-05-22T07:04:11;100553.81;;;23.11;52.79
48872;BME280;36154;51.674;7.824;2023-05-22T07:06:37;100548.63;;;23.11;52.87
48872;BME280;36154;51.674;7.824;2023-05-22T07:09:04;100554.69;;;23.12;52.65
48872;BME280;36154;51.674;7.824;2023-05-22T07:11:30;100555.53;;;23.12;52.77
48872;BME280;36154;51.674;7.824;2023-05-22T07:13:55;100561.56;;;23.13;52.63
48872;BME280;36154;51.674;7.824;2023-05-22T07:16:21;100555.53;;;23.12;52.66
48872;BME280;36154;51.674;7.824;2023-05-22T07:18:47;100559.78;;;23.13;53.01
48872;BME280;36154;51.674;7.824;2023-05-22T07:21:12;100563.25;;;23.14;52.65
48872;BME280;36154;51.674;7.824;2023-05-22T07:23:37;100562.38;;;23.13;52.94
48872;BME280;36154;51.674;7.824;2023-05-22T07:26:03;100566.69;;;23.14;53.00
48872;BME280;36154;51.674;7.824;2023-05-22T07:28:28;100564.94;;;23.15;52.69
48872;BME280;36154;51.674;7.824;2023-05-22T07:30:54;100563.25;;;23.14;52.92
48872;BME280;36154;51.674;7.824;2023-05-22T07:33:19;100560.59;;;23.15;52.99
48872;BME280;36154;51.674;7.824;2023-05-22T07:35:44;100561.44;;;23.16;52.70
48872;BME280;36154;51.674;7.824;2023-05-22T07:38:10;100562.25;;;23.16;52.69
48872;BME280;36154;51.674;7.824;2023-05-22T07:40:35;100559.72;;;23.15;52.73
48872;BME280;36154;51.674;7.824;2023-05-22T07:43:01;100557.94;;;23.17;52.61
48872;BME280;36154;51.674;7.824;2023-05-22T07:45:26;100556.16;;;23.17;52.68
48872;BME280;36154;51.674;7.824;2023-05-22T07:47:51;100553.56;;;23.17;53.00
48872;BME280;36154;51.674;7.824;2023-05-22T07:50:17;100556.16;;;23.17;52.99
48872;BME280;36154;51.674;7.824;2023-05-22T07:52:43;100560.47;;;23.18;52.99
48872;BME280;36154;51.674;7.824;2023-05-22T07:55:08;100567.34;;;23.19;52.98
48872;BME280;36154;51.674;7.824;2023-05-22T07:57:34;100561.31;;;23.19;52.88
48872;BME280;36154;51.674;7.824;2023-05-22T08:00:00;100556.28;;;23.14;52.94
48872;BME280;36154;51.674;7.824;2023-05-22T08:02:36;100570.00;;;23.18;53.28
48872;BME280;36154;51.674;7.824;2023-05-22T08:05:02;100569.88;;;23.21;52.86
48872;BME280;36154;51.674;7.824;2023-05-22T08:07:28;100569.88;;;23.21;53.15
48872;BME280;36154;51.674;7.824;2023-05-22T08:09:53;100575.09;;;23.21;52.99
48872;BME280;36154;51.674;7.824;2023-05-22T08:12:19;100577.63;;;23.22;53.22
48872;BME280;36154;51.674;7.824;2023-05-22T08:14:44;100576.78;;;23.22;53.14
48872;BME280;36154;51.674;7.824;2023-05-22T08:17:09;100578.47;;;23.23;52.87
48872;BME280;36154;51.674;7.824;2023-05-22T08:19:35;100577.63;;;23.22;52.89
48872;BME280;36154;51.674;7.824;2023-05-22T08:22:00;100574.13;;;23.23;53.06
48872;BME280;36154;51.674;7.824;2023-05-22T08:24:26;100578.47;;;23.23;53.17
48872;BME280;36154;51.674;7.824;2023-05-22T08:26:53;100574.13;;;23.23;53.01
48872;BME280;36154;51.674;7.824;2023-05-22T08:29:19;100581.00;;;23.24;53.04
48872;BME280;36154;51.674;7.824;2023-05-22T08:31:44;100579.31;;;23.23;53.45
48872;BME280;36154;51.674;7.824;2023-05-22T08:34:10;100579.31;;;23.23;52.91
48872;BME280;36154;51.674;7.824;2023-05-22T08:36:35;100575.78;;;23.24;53.40
48872;BME280;36154;51.674;7.824;2023-05-22T08:39:00;100582.69;;;23.25;53.19
48872;BME280;36154;51.674;7.824;2023-05-22T08:41:27;100575.78;;;23.24;53.21
48872;BME280;36154;51.674;7.824;2023-05-22T08:43:52;100580.09;;;23.25;53.16
48872;BME280;36154;51.674;7.824;2023-05-22T08:46:18;100580.09;;;23.25;53.11
48872;BME280;36154;51.674;7.824;2023-05-22T08:48:44;100580.03;;;23.27;53.20
48872;BME280;36154;51.674;7.824;2023-05-22T08:51:12;100573.97;;;23.26;52.86
48872;BME280;36154;51.674;7.824;2023-05-22T08:53:39;100563.56;;;23.26;53.21
48872;BME280;36154;51.674;7.824;2023-05-22T08:56:07;100569.56;;;23.29;52.92
48872;BME280;36154;51.674;7.824;2023-05-22T08:58:34;100567.81;;;23.29;52.95
48872;BME280;36154;51.674;7.824;2023-05-22T09:01:00;100573.84;;;23.30;53.26
48872;BME280;36154;51.674;7.824;2023-05-22T09:03:28;100571.25;;;23.30;53.42
48872;BME280;36154;51.674;7.824;2023-05-22T09:05:58;100576.44;;;23.30;53.56
48872;BME280;36154;51.674;7.824;2023-05-22T09:08:24;100573.84;;;23.30;53.42
48872;BME280;36154;51.674;7.824;2023-05-22T09:10:49;100582.47;;;23.32;53.47
48872;BME280;36154;51.674;7.824;2023-05-22T09:13:26;100575.56;;;23.31;53.66
48872;BME280;36154;51.674;7.824;2023-05-22T09:15:52;100575.56;;;23.31;53.17
48872;BME280;36154;51.674;7.824;2023-05-22T09:18:25;100572.06;;;23.32;53.18
48872;BME280;36154;51.674;7.824;2023-05-22T09:20:51;100578.09;;;23.32;53.09
48872;BME280;36154;51.674;7.824;2023-05-22T09:23:16;100571.13;;;23.33;53.31
48872;BME280;36154;51.674;7.824;2023-05-22T09:25:43;100583.28;;;23.32;53.09
48872;BME280;36154;51.674;7.824;2023-05-22T09:28:10;100573.72;;;23.33;52.94
48872;BME280;36154;51.674;7.824;2023-05-22T09:30:35;100573.72;;;23.33;52.99
48872;BME280;36154;51.674;7.824;2023-05-22T09:33:02;100568.59;;;23.31;53.03
48872;BME280;36154;51.674;7.824;2023-05-22T09:35:30;100565.94;;;23.33;53.08
48872;BME280;36154;51.674;7.824;2023-05-22T09:37:57;100570.22;;;23.34;52.95
48872;BME280;36154;51.674;7.824;2023-05-22T09:40:22;100569.50;;;23.30;52.82
48872;BME280;36154;51.674;7.824;2023-05-22T09:42:47;100571.00;;;23.36;52.88
48872;BME280;36154;51.674;7.824;2023-05-22T09:45:13;100574.50;;;23.35;52.83
48872;BME280;36154;51.674;7.824;2023-05-22T09:47:38;100572.78;;;23.35;52.53
48872;BME280;36154;51.674;7.824;2023-05-22T09:50:06;100572.78;;;23.35;52.79
48872;BME280;36154;51.674;7.824;2023-05-22T09:52:35;100564.25;;;23.32;52.69
48872;BME280;36154;51.674;7.824;2023-05-22T09:55:05;100566.63;;;23.36;53.03
48872;BME280;36154;51.674;7.824;2023-05-22T09:57:32;100564.91;;;23.37;52.49
48872;BME280;36154;51.674;7.824;2023-05-22T10:00:04;100576.09;;;23.39;52.49
48872;BME280;36154;51.674;7.824;2023-05-22T10:02:36;100572.56;;;23.40;52.64
48872;BME280;36154;51.674;7.824;2023-05-22T10:05:05;100563.09;;;23.39;52.78
48872;BME280;36154;51.674;7.824;2023-05-22T10:07:42;100564.75;;;23.40;52.75
48872;BME280;36154;51.674;7.824;2023-05-22T10:10:10;100560.41;;;23.40;52.74
48872;BME280;36154;51.674;7.824;2023-05-22T10:12:43;100566.47;;;23.41;52.52
48872;BME280;36154;51.674;7.824;2023-05-22T10:15:09;100562.97;;;23.42;52.48
48872;BME280;36154;51.674;7.824;2023-05-22T10:17:36;100562.03;;;23.43;52.83
48872;BME280;36154;51.674;7.824;2023-05-22T10:20:04;100566.34;;;23.44;52.42
48872;BME280;36154;51.674;7.824;2023-05-22T10:22:36;100567.16;;;23.44;52.55
48872;BME280;36154;51.674;7.824;2023-05-22T10:25:03;100569.69;;;23.46;52.64
48872;BME280;36154;51.674;7.824;2023-05-22T10:27:28;100566.22;;;23.47;52.63
48872;BME280;36154;51.674;7.824;2023-05-22T10:32:43;100566.91;;;23.51;52.39
48872;BME280;36154;51.674;7.824;2023-05-22T10:35:20;100565.16;;;23.51;52.83
48872;BME280;36154;51.674;7.824;2023-05-22T10:37:52;100554.69;;;23.53;52.29
48872;BME280;36154;51.674;7.824;2023-05-22T10:40:30;100558.13;;;23.53;52.70
48872;BME280;36154;51.674;7.824;2023-05-22T10:43:00;100551.16;;;23.55;52.33
48872;BME280;36154;51.674;7.824;2023-05-22T10:45:30;100557.97;;;23.58;52.84
48872;BME280;36154;51.674;7.824;2023-05-22T10:48:14;100554.41;;;23.60;52.82
48872;BME280;36154;51.674;7.824;2023-05-22T10:50:49;100551.81;;;23.60;53.02
48872;BME280;36154;51.674;7.824;2023-05-22T10:53:20;100553.47;;;23.61;53.45
48872;BME280;36154;51.674;7.824;2023-05-22T10:55:57;100545.59;;;23.63;53.33
48872;BME280;36154;51.674;7.824;2023-05-22T10:58:28;100553.34;;;23.65;53.03
48872;BME280;36154;51.674;7.824;2023-05-22T11:01:06;100555.03;;;23.66;53.15
48872;BME280;36154;51.674;7.824;2023-05-22T11:03:54;100555.81;;;23.68;53.84
48872;BME280;36154;51.674;7.824;2023-05-22T11:12:23;100555.69;;;23.71;53.65
48872;BME280;36154;51.674;7.824;2023-05-22T11:14:54;100553.09;;;23.71;53.51
48872;BME280;36154;51.674;7.824;2023-05-22T11:22:22;100545.16;;;23.74;53.43
48872;BME280;36154;51.674;7.824;2023-05-22T11:24:53;100546.81;;;23.75;53.43
48872;BME280;36154;51.674;7.824;2023-05-22T11:27:19;100541.69;;;23.73;53.13
48872;BME280;36154;51.674;7.824;2023-05-22T11:29:44;100541.63;;;23.75;53.44
48872;BME280;36154;51.674;7.824;2023-05-22T11:32:11;100533.75;;;23.76;53.24
48872;BME280;36154;51.674;7.824;2023-05-22T11:34:41;100533.69;;;23.78;53.18
48872;BME280;36154;51.674;7.824;2023-05-22T11:37:07;100536.28;;;23.78;53.23
48872;BME280;36154;51.674;7.824;2023-05-22T11:39:33;100537.06;;;23.80;52.75
48872;BME280;36154;51.674;7.824;2023-05-22T11:41:58;100529.25;;;23.80;53.28
48872;BME280;36154;51.674;7.824;2023-05-22T11:44:26;100522.38;;;23.79;53.05
48872;BME280;36154;51.674;7.824;2023-05-22T11:46:51;100523.28;;;23.78;52.88
48872;BME280;36154;51.674;7.824;2023-05-22T11:49:18;100513.72;;;23.78;52.96
48872;BME280;36154;51.674;7.824;2023-05-22T11:51:47;100519.78;;;23.79;52.88
48872;BME280;36154;51.674;7.824;2023-05-22T11:54:16;100511.97;;;23.79;52.71
48872;BME280;36154;51.674;7.824;2023-05-22T11:56:42;100514.56;;;23.79;52.78
48872;BME280;36154;51.674;7.824;2023-05-22T11:59:07;100511.03;;;23.80;52.56
48872;BME280;36154;51.674;7.824;2023-05-22T12:01:33;100504.09;;;23.80;52.36
48872;BME280;36154;51.674;7.824;2023-05-22T12:04:00;100507.53;;;23.81;52.85
48872;BME280;36154;51.674;7.824;2023-05-22T12:06:25;100507.47;;;23.83;52.57
48872;BME280;36154;51.674;7.824;2023-05-22T12:08:50;100504.03;;;23.82;52.21
48872;BME280;36154;51.674;7.824;2023-05-22T12:11:16;100500.50;;;23.83;52.50
48872;BME280;36154;51.674;7.824;2023-05-22T12:13:41;100504.81;;;23.84;52.53
48872;BME280;36154;51.674;7.824;2023-05-22T12:16:18;100490.09;;;23.83;52.66
48872;BME280;36154;51.674;7.824;2023-05-22T12:18:45;100497.00;;;23.84;52.27
48872;BME280;36154;51.674;7.824;2023-05-22T12:21:10;100497.84;;;23.85;52.28
48872;BME280;36154;51.674;7.824;2023-05-22T12:23:46;100498.59;;;23.87;52.48
48872;BME280;36154;51.674;7.824;2023-05-22T12:26:12;100506.41;;;23.87;52.41
48872;BME280;36154;51.674;7.824;2023-05-22T12:28:37;100498.59;;;23.87;52.42
48872;BME280;36154;51.674;7.824;2023-05-22T12:31:03;100500.31;;;23.88;52.14
48872;BME280;36154;51.674;7.824;2023-05-22T12:33:29;100504.59;;;23.89;52.33
48872;BME280;36154;51.674;7.824;2023-05-22T12:35:56;100499.41;;;23.89;52.31
48872;BME280;36154;51.674;7.824;2023-05-22T12:38:25;100506.28;;;23.90;52.08
48872;BME280;36154;51.674;7.824;2023-05-22T12:40:51;100503.75;;;23.88;51.83
48872;BME280;36154;51.674;7.824;2023-05-22T12:43:17;100501.91;;;23.90;51.92
48872;BME280;36154;51.674;7.824;2023-05-22T12:45:42;100513.19;;;23.91;52.09
48872;BME280;36154;51.674;7.824;2023-05-22T12:48:07;100506.22;;;23.91;52.09
48872;BME280;36154;51.674;7.824;2023-05-22T12:50:33;100510.50;;;23.92;52.11
48872;BME280;36154;51.674;7.824;2023-05-22T12:53:02;100520.91;;;23.92;51.68
48872;BME280;36154;51.674;7.824;2023-05-22T12:55:27;100520.06;;;23.92;51.71
48872;BME280;36154;51.674;7.824;2023-05-22T12:57:52;100519.22;;;23.91;51.83
48872;BME280;36154;51.674;7.824;2023-05-22T13:00:18;100520.91;;;23.92;51.60
48872;BME280;36154;51.674;7.824;2023-05-22T13:02:43;100520.91;;;23.92;51.89
48872;BME280;36154;51.674;7.824;2023-05-22T13:05:09;100524.44;;;23.91;51.83
48872;BME280;36154;51.674;7.824;2023-05-22T13:07:35;100523.47;;;23.94;51.71
48872;BME280;36154;51.674;7.824;2023-05-22T13:10:02;100530.41;;;23.93;51.47
48872;BME280;36154;51.674;7.824;2023-05-22T13:12:28;100522.59;;;23.93;51.88